sensor_id;sensor_type;location;lat;lon;timestamp;pressure;altitude;pressure_sealevel;temperature;humidity
15263;BME280;7733;51.554;13.590;2023-07-13T00:01:45;100133.53;;;24.95;47.14
15263;BME280;7733;51.554;13.590;2023-07-13T00:04:14;100130.94;;;24.82;48.04
15263;BME280;7733;51.554;13.590;2023-07-13T00:06:40;100132.50;;;24.74;48.27
15263;BME280;7733;51.554;13.590;2023-07-13T00:09:05;100135.56;;;24.80;48.81
15263;BME280;7733;51.554;13.590;2023-07-13T00:11:31;100116.16;;;24.66;49.82
15263;BME280;7733;51.554;13.590;2023-07-13T00:13:58;100105.75;;;25.41;47.16
15263;BME280;7733;51.554;13.590;2023-07-13T00:16:23;100098.94;;;25.48;47.22
15263;BME280;7733;51.554;13.590;2023-07-13T00:18:49;100084.28;;;25.18;47.20
15263;BME280;7733;51.554;13.590;2023-07-13T00:21:15;100084.41;;;25.06;47.54
15263;BME280;7733;51.554;13.590;2023-07-13T00:23:42;100087.22;;;23.99;51.71
15263;BME280;7733;51.554;13.590;2023-07-13T00:26:10;100078.06;;;25.18;47.97
15263;BME280;7733;51.554;13.590;2023-07-13T00:28:38;100084.94;;;24.65;50.06
15263;BME280;7733;51.554;13.590;2023-07-13T00:31:05;100098.13;;;24.09;53.27
15263;BME280;7733;51.554;13.590;2023-07-13T00:33:31;100100.34;;;24.96;49.20
15263;BME280;7733;51.554;13.590;2023-07-13T00:35:57;100110.09;;;23.92;51.82
15263;BME280;7733;51.554;13.590;2023-07-13T00:38:23;100109.75;;;23.60;53.40
15263;BME280;7733;51.554;13.590;2023-07-13T00:40:49;100121.91;;;23.27;56.88
15263;BME280;7733;51.554;13.590;2023-07-13T00:43:22;100116.91;;;23.72;55.43
15263;BME280;7733;51.554;13.590;2023-07-13T00:48:20;100120.91;;;23.90;52.76
15263;BME280;7733;51.554;13.590;2023-07-13T00:50:52;100124.97;;;23.96;51.70
15263;BME280;7733;51.554;13.590;2023-07-13T00:53:20;100123.63;;;24.02;51.29
15263;BME280;7733;51.554;13.590;2023-07-13T00:55:49;100129.22;;;23.75;51.36
15263;BME280;7733;51.554;13.590;2023-07-13T00:58:15;100128.69;;;23.70;50.54
15263;BME280;7733;51.554;13.590;2023-07-13T01:00:42;100129.94;;;24.13;48.94
15263;BME280;7733;51.554;13.590;2023-07-13T01:03:08;100137.16;;;24.00;49.19
15263;BME280;7733;51.554;13.590;2023-07-13T01:05:35;100135.38;;;23.26;50.94
15263;BME280;7733;51.554;13.590;2023-07-13T01:08:03;100140.47;;;23.54;50.45
15263;BME280;7733;51.554;13.590;2023-07-13T01:10:30;100150.25;;;23.17;51.76
15263;BME280;7733;51.554;13.590;2023-07-13T01:13:06;100157.00;;;22.97;52.91
15263;BME280;7733;51.554;13.590;2023-07-13T01:15:48;100158.28;;;22.92;54.27
15263;BME280;7733;51.554;13.590;2023-07-13T01:18:24;100156.56;;;23.16;53.43
15263;BME280;7733;51.554;13.590;2023-07-13T01:21:02;100149.28;;;23.18;52.90
15263;BME280;7733;51.554;13.590;2023-07-13T01:23:29;100135.59;;;23.23;51.90
15263;BME280;7733;51.554;13.590;2023-07-13T01:25:57;100137.81;;;23.42;50.91
15263;BME280;7733;51.554;13.590;2023-07-13T01:28:24;100141.34;;;23.55;50.04
15263;BME280;7733;51.554;13.590;2023-07-13T01:30:54;100135.56;;;23.35;50.15
15263;BME280;7733;51.554;13.590;2023-07-13T01:33:20;100138.59;;;23.31;50.85
15263;BME280;7733;51.554;13.590;2023-07-13T01:35:47;100145.66;;;23.06;50.94
15263;BME280;7733;51.554;13.590;2023-07-13T01:38:21;100136.13;;;23.15;50.88
15263;BME280;7733;51.554;13.590;2023-07-13T01:40:48;100137.00;;;23.03;50.99
15263;BME280;7733;51.554;13.590;2023-07-13T01:43:14;100137.00;;;22.90;50.72
15263;BME280;7733;51.554;13.590;2023-07-13T01:45:40;100127.13;;;23.16;49.95
15263;BME280;7733;51.554;13.590;2023-07-13T01:48:06;100127.25;;;23.27;50.03
15263;BME280;7733;51.554;13.590;2023-07-13T01:50:34;100125.53;;;23.26;50.16
15263;BME280;7733;51.554;13.590;2023-07-13T01:53:00;100129.13;;;22.74;51.75
15263;BME280;7733;51.554;13.590;2023-07-13T01:55:28;100123.19;;;22.84;51.96
15263;BME280;7733;51.554;13.590;2023-07-13T01:57:54;100120.19;;;23.14;52.01
15263;BME280;7733;51.554;13.590;2023-07-13T02:00:20;100124.72;;;23.75;49.56
15263;BME280;7733;51.554;13.590;2023-07-13T02:02:46;100115.22;;;23.95;49.19
15263;BME280;7733;51.554;13.590;2023-07-13T02:05:13;100120.69;;;23.44;50.25
15263;BME280;7733;51.554;13.590;2023-07-13T02:07:40;100119.44;;;23.24;51.18
15263;BME280;7733;51.554;13.590;2023-07-13T02:10:07;100126.53;;;23.75;49.52
15263;BME280;7733;51.554;13.590;2023-07-13T02:12:34;100124.09;;;23.59;49.62
15263;BME280;7733;51.554;13.590;2023-07-13T02:15:01;100112.38;;;23.85;48.77
15263;BME280;7733;51.554;13.590;2023-07-13T02:17:27;100121.56;;;23.19;50.64
15263;BME280;7733;51.554;13.590;2023-07-13T02:19:53;100140.28;;;23.19;51.20
15263;BME280;7733;51.554;13.590;2023-07-13T02:22:20;100153.56;;;22.83;52.20
15263;BME280;7733;51.554;13.590;2023-07-13T02:24:46;100155.06;;;22.99;51.58
15263;BME280;7733;51.554;13.590;2023-07-13T02:27:11;100167.69;;;22.97;51.86
15263;BME280;7733;51.554;13.590;2023-07-13T02:29:37;100164.06;;;23.11;51.71
15263;BME280;7733;51.554;13.590;2023-07-13T02:32:03;100165.44;;;22.91;53.19
15263;BME280;7733;51.554;13.590;2023-07-13T02:34:29;100148.28;;;22.29;55.39
15263;BME280;7733;51.554;13.590;2023-07-13T02:36:55;100153.91;;;22.51;54.79
15263;BME280;7733;51.554;13.590;2023-07-13T02:39:20;100174.88;;;21.89;56.89
15263;BME280;7733;51.554;13.590;2023-07-13T02:41:46;100161.53;;;21.89;56.13
15263;BME280;7733;51.554;13.590;2023-07-13T02:44:15;100169.66;;;21.88;56.29
15263;BME280;7733;51.554;13.590;2023-07-13T02:46:41;100173.16;;;21.88;56.44
15263;BME280;7733;51.554;13.590;2023-07-13T02:49:07;100173.19;;;21.74;57.47
15263;BME280;7733;51.554;13.590;2023-07-13T02:51:33;100161.13;;;21.95;56.93
15263;BME280;7733;51.554;13.590;2023-07-13T02:54:04;100156.75;;;21.94;57.47
15263;BME280;7733;51.554;13.590;2023-07-13T02:56:31;100171.06;;;22.07;57.26
15263;BME280;7733;51.554;13.590;2023-07-13T02:58:58;100171.00;;;22.22;57.10
15263;BME280;7733;51.554;13.590;2023-07-13T03:01:24;100162.34;;;22.97;54.40
15263;BME280;7733;51.554;13.590;2023-07-13T03:03:51;100169.50;;;23.22;53.40
15263;BME280;7733;51.554;13.590;2023-07-13T03:06:18;100167.97;;;22.40;56.44
15263;BME280;7733;51.554;13.590;2023-07-13T03:08:45;100171.56;;;22.27;57.41
15263;BME280;7733;51.554;13.590;2023-07-13T03:11:15;100168.34;;;23.14;53.98
15263;BME280;7733;51.554;13.590;2023-07-13T03:13:42;100165.78;;;23.12;53.80
15263;BME280;7733;51.554;13.590;2023-07-13T03:16:10;100163.88;;;22.74;55.38
15263;BME280;7733;51.554;13.590;2023-07-13T03:18:37;100162.44;;;22.43;56.65
15263;BME280;7733;51.554;13.590;2023-07-13T03:21:05;100165.28;;;22.28;57.32
15263;BME280;7733;51.554;13.590;2023-07-13T03:23:31;100191.84;;;22.43;57.01
15263;BME280;7733;51.554;13.590;2023-07-13T03:26:13;100206.94;;;21.75;60.09
15263;BME280;7733;51.554;13.590;2023-07-13T03:28:39;100206.69;;;21.51;62.19
15263;BME280;7733;51.554;13.590;2023-07-13T03:31:09;100208.19;;;21.55;62.11
15263;BME280;7733;51.554;13.590;2023-07-13T03:33:36;100202.59;;;22.01;60.25
15263;BME280;7733;51.554;13.590;2023-07-13T03:36:04;100191.53;;;22.48;58.63
15263;BME280;7733;51.554;13.590;2023-07-13T03:38:30;100202.03;;;22.51;58.38
15263;BME280;7733;51.554;13.590;2023-07-13T03:40:56;100192.59;;;22.45;59.31
15263;BME280;7733;51.554;13.590;2023-07-13T03:43:22;100188.97;;;22.59;58.92
15263;BME280;7733;51.554;13.590;2023-07-13T03:45:48;100184.84;;;22.81;57.94
15263;BME280;7733;51.554;13.590;2023-07-13T03:48:14;100183.25;;;23.05;57.17
15263;BME280;7733;51.554;13.590;2023-07-13T03:50:40;100183.97;;;23.20;56.16
15263;BME280;7733;51.554;13.590;2023-07-13T03:53:07;100176.91;;;23.31;56.28
15263;BME280;7733;51.554;13.590;2023-07-13T03:55:32;100156.03;;;23.36;55.61
15263;BME280;7733;51.554;13.590;2023-07-13T03:58:24;100163.19;;;23.36;55.70
15263;BME280;7733;51.554;13.590;2023-07-13T04:00:53;100172.50;;;22.53;58.74
15263;BME280;7733;51.554;13.590;2023-07-13T04:03:18;100168.13;;;22.91;57.57
15263;BME280;7733;51.554;13.590;2023-07-13T04:05:44;100176.69;;;22.84;57.88
15263;BME280;7733;51.554;13.590;2023-07-13T04:08:10;100186.00;;;23.16;56.70
15263;BME280;7733;51.554;13.590;2023-07-13T04:10:35;100191.91;;;23.34;55.74
15263;BME280;7733;51.554;13.590;2023-07-13T04:13:01;100200.03;;;23.07;57.01
15263;BME280;7733;51.554;13.590;2023-07-13T04:15:30;100212.09;;;22.06;61.88
15263;BME280;7733;51.554;13.590;2023-07-13T04:17:56;100217.78;;;22.00;62.78
15263;BME280;7733;51.554;13.590;2023-07-13T04:20:24;100222.56;;;21.95;63.71
15263;BME280;7733;51.554;13.590;2023-07-13T04:22:50;100222.47;;;22.11;62.97
15263;BME280;7733;51.554;13.590;2023-07-13T04:25:16;100224.47;;;21.79;63.62
15263;BME280;7733;51.554;13.590;2023-07-13T04:27:41;100226.53;;;22.02;63.30
15263;BME280;7733;51.554;13.590;2023-07-13T04:30:08;100234.91;;;21.83;64.26
15263;BME280;7733;51.554;13.590;2023-07-13T04:32:33;100232.78;;;22.03;63.80
15263;BME280;7733;51.554;13.590;2023-07-13T04:34:59;100236.41;;;21.59;65.45
15263;BME280;7733;51.554;13.590;2023-07-13T04:37:26;100231.81;;;21.61;65.91
15263;BME280;7733;51.554;13.590;2023-07-13T04:39:52;100237.25;;;22.16;63.51
15263;BME280;7733;51.554;13.590;2023-07-13T04:42:19;100243.75;;;21.55;66.45
15263;BME280;7733;51.554;13.590;2023-07-13T04:44:49;100244.91;;;21.51;66.99
15263;BME280;7733;51.554;13.590;2023-07-13T04:47:15;100236.69;;;21.54;66.82
15263;BME280;7733;51.554;13.590;2023-07-13T04:49:41;100239.69;;;21.64;66.46
15263;BME280;7733;51.554;13.590;2023-07-13T04:52:07;100239.94;;;21.31;68.27
15263;BME280;7733;51.554;13.590;2023-07-13T04:54:34;100249.47;;;21.49;67.36
15263;BME280;7733;51.554;13.590;2023-07-13T04:57:00;100251.00;;;21.53;67.02
15263;BME280;7733;51.554;13.590;2023-07-13T04:59:26;100246.13;;;21.32;68.23
15263;BME280;7733;51.554;13.590;2023-07-13T05:01:53;100247.66;;;21.20;68.59
15263;BME280;7733;51.554;13.590;2023-07-13T05:04:19;100251.34;;;21.33;68.54
15263;BME280;7733;51.554;13.590;2023-07-13T05:06:44;100254.50;;;21.25;69.03
15263;BME280;7733;51.554;13.590;2023-07-13T05:09:10;100263.97;;;20.85;70.93
15263;BME280;7733;51.554;13.590;2023-07-13T05:11:38;100257.00;;;21.13;70.09
15263;BME280;7733;51.554;13.590;2023-07-13T05:14:04;100258.13;;;21.39;69.29
15263;BME280;7733;51.554;13.590;2023-07-13T05:16:29;100260.88;;;21.37;69.71
15263;BME280;7733;51.554;13.590;2023-07-13T05:18:55;100258.44;;;21.48;68.94
15263;BME280;7733;51.554;13.590;2023-07-13T05:21:21;100243.28;;;21.77;66.76
15263;BME280;7733;51.554;13.590;2023-07-13T05:23:47;100257.69;;;22.03;65.75
15263;BME280;7733;51.554;13.590;2023-07-13T05:26:13;100255.19;;;21.43;67.82
15263;BME280;7733;51.554;13.590;2023-07-13T05:28:39;100253.75;;;21.95;65.72
15263;BME280;7733;51.554;13.590;2023-07-13T05:31:08;100251.34;;;22.33;63.06
15263;BME280;7733;51.554;13.590;2023-07-13T05:33:34;100261.94;;;22.20;62.26
15263;BME280;7733;51.554;13.590;2023-07-13T05:36:00;100253.91;;;22.34;61.56
15263;BME280;7733;51.554;13.590;2023-07-13T05:38:27;100253.03;;;22.48;60.56
15263;BME280;7733;51.554;13.590;2023-07-13T05:40:55;100262.22;;;22.30;61.96
15263;BME280;7733;51.554;13.590;2023-07-13T05:43:22;100254.75;;;22.62;60.94
15263;BME280;7733;51.554;13.590;2023-07-13T05:45:48;100249.63;;;23.25;58.49
15263;BME280;7733;51.554;13.590;2023-07-13T05:48:15;100257.44;;;23.28;57.32
15263;BME280;7733;51.554;13.590;2023-07-13T05:50:41;100257.56;;;23.52;56.79
15263;BME280;7733;51.554;13.590;2023-07-13T05:53:07;100256.06;;;23.23;56.86
15263;BME280;7733;51.554;13.590;2023-07-13T05:55:33;100257.19;;;23.06;56.51
15263;BME280;7733;51.554;13.590;2023-07-13T05:58:00;100258.50;;;23.38;55.48
15263;BME280;7733;51.554;13.590;2023-07-13T06:00:26;100254.91;;;23.65;54.87
15263;BME280;7733;51.554;13.590;2023-07-13T06:02:53;100253.50;;;23.85;54.14
15263;BME280;7733;51.554;13.590;2023-07-13T06:05:19;100256.94;;;23.74;53.51
15263;BME280;7733;51.554;13.590;2023-07-13T06:07:45;100258.75;;;23.61;54.15
15263;BME280;7733;51.554;13.590;2023-07-13T06:10:10;100261.53;;;23.85;53.59
15263;BME280;7733;51.554;13.590;2023-07-13T06:12:36;100260.97;;;23.92;53.03
15263;BME280;7733;51.554;13.590;2023-07-13T06:15:02;100260.25;;;23.90;52.96
15263;BME280;7733;51.554;13.590;2023-07-13T06:17:29;100258.50;;;23.38;54.01
15263;BME280;7733;51.554;13.590;2023-07-13T06:19:54;100263.97;;;24.01;52.40
15263;BME280;7733;51.554;13.590;2023-07-13T06:22:20;100264.47;;;24.18;51.26
15263;BME280;7733;51.554;13.590;2023-07-13T06:24:46;100259.63;;;24.36;50.74
15263;BME280;7733;51.554;13.590;2023-07-13T06:27:12;100255.63;;;24.42;51.14
15263;BME280;7733;51.554;13.590;2023-07-13T06:29:37;100258.25;;;24.78;50.30
15263;BME280;7733;51.554;13.590;2023-07-13T06:32:04;100255.44;;;24.19;50.90
15263;BME280;7733;51.554;13.590;2023-07-13T06:34:29;100257.38;;;24.67;49.21
15263;BME280;7733;51.554;13.590;2023-07-13T06:36:55;100256.81;;;24.62;49.49
15263;BME280;7733;51.554;13.590;2023-07-13T06:39:21;100252.56;;;24.83;48.55
15263;BME280;7733;51.554;13.590;2023-07-13T06:41:47;100258.63;;;24.50;48.27
15263;BME280;7733;51.554;13.590;2023-07-13T06:44:12;100256.75;;;24.26;49.30
15263;BME280;7733;51.554;13.590;2023-07-13T06:46:38;100264.47;;;24.31;48.82
15263;BME280;7733;51.554;13.590;2023-07-13T06:49:04;100264.13;;;24.36;49.79
15263;BME280;7733;51.554;13.590;2023-07-13T06:51:29;100263.91;;;25.10;47.18
15263;BME280;7733;51.554;13.590;2023-07-13T06:53:55;100261.34;;;24.61;47.58
15263;BME280;7733;51.554;13.590;2023-07-13T06:56:21;100262.31;;;24.84;47.42
15263;BME280;7733;51.554;13.590;2023-07-13T06:58:47;100264.66;;;24.28;47.58
15263;BME280;7733;51.554;13.590;2023-07-13T07:01:13;100264.44;;;25.27;46.54
15263;BME280;7733;51.554;13.590;2023-07-13T07:03:39;100268.13;;;24.54;48.23
15263;BME280;7733;51.554;13.590;2023-07-13T07:06:23;100271.88;;;24.64;47.01
15263;BME280;7733;51.554;13.590;2023-07-13T07:08:50;100277.22;;;25.12;46.06
15263;BME280;7733;51.554;13.590;2023-07-13T07:11:21;100281.84;;;24.86;47.35
15263;BME280;7733;51.554;13.590;2023-07-13T07:13:48;100279.53;;;25.16;46.90
15263;BME280;7733;51.554;13.590;2023-07-13T07:16:15;100280.13;;;25.09;46.80
15263;BME280;7733;51.554;13.590;2023-07-13T07:18:41;100289.97;;;25.32;46.51
15263;BME280;7733;51.554;13.590;2023-07-13T07:21:07;100284.78;;;25.07;47.03
15263;BME280;7733;51.554;13.590;2023-07-13T07:23:33;100282.53;;;25.36;46.91
15263;BME280;7733;51.554;13.590;2023-07-13T07:25:58;100288.56;;;24.92;47.36
15263;BME280;7733;51.554;13.590;2023-07-13T07:28:24;100295.94;;;24.77;47.78
15263;BME280;7733;51.554;13.590;2023-07-13T07:30:53;100291.19;;;25.28;46.50
15263;BME280;7733;51.554;13.590;2023-07-13T07:33:19;100289.50;;;25.38;46.00
15263;BME280;7733;51.554;13.590;2023-07-13T07:35:45;100294.66;;;25.06;46.04
15263;BME280;7733;51.554;13.590;2023-07-13T07:38:11;100293.56;;;25.55;44.91
15263;BME280;7733;51.554;13.590;2023-07-13T07:40:39;100291.69;;;25.33;46.12
15263;BME280;7733;51.554;13.590;2023-07-13T07:43:07;100296.31;;;25.77;45.02
15263;BME280;7733;51.554;13.590;2023-07-13T07:45:33;100296.91;;;25.81;45.58
15263;BME280;7733;51.554;13.590;2023-07-13T07:47:59;100300.47;;;25.93;44.98
15263;BME280;7733;51.554;13.590;2023-07-13T07:50:28;100291.03;;;26.32;44.27
15263;BME280;7733;51.554;13.590;2023-07-13T07:52:54;100296.28;;;25.66;46.46
15263;BME280;7733;51.554;13.590;2023-07-13T07:55:22;100298.19;;;25.53;46.47
15263;BME280;7733;51.554;13.590;2023-07-13T07:57:49;100296.56;;;25.86;45.97
15263;BME280;7733;51.554;13.590;2023-07-13T08:00:16;100292.78;;;26.11;45.08
15263;BME280;7733;51.554;13.590;2023-07-13T08:02:43;100304.13;;;25.81;45.13
15263;BME280;7733;51.554;13.590;2023-07-13T08:05:09;100298.75;;;25.69;45.52
15263;BME280;7733;51.554;13.590;2023-07-13T08:07:37;100299.09;;;26.21;44.76
15263;BME280;7733;51.554;13.590;2023-07-13T08:10:04;100314.41;;;25.98;45.26
15263;BME280;7733;51.554;13.590;2023-07-13T08:12:30;100302.06;;;25.84;46.03
15263;BME280;7733;51.554;13.590;2023-07-13T08:14:58;100303.75;;;26.52;43.96
15263;BME280;7733;51.554;13.590;2023-07-13T08:17:26;100303.13;;;26.60;43.45
15263;BME280;7733;51.554;13.590;2023-07-13T08:19:53;100310.34;;;26.59;43.48
15263;BME280;7733;51.554;13.590;2023-07-13T08:22:19;100320.06;;;25.60;46.30
15263;BME280;7733;51.554;13.590;2023-07-13T08:24:45;100313.78;;;25.72;45.53
15263;BME280;7733;51.554;13.590;2023-07-13T08:27:11;100314.44;;;25.63;46.83
15263;BME280;7733;51.554;13.590;2023-07-13T08:29:38;100312.31;;;26.13;44.89
15263;BME280;7733;51.554;13.590;2023-07-13T08:32:07;100317.34;;;25.95;45.82
15263;BME280;7733;51.554;13.590;2023-07-13T08:34:35;100318.72;;;25.54;45.49
15263;BME280;7733;51.554;13.590;2023-07-13T08:37:02;100319.78;;;25.87;44.17
15263;BME280;7733;51.554;13.590;2023-07-13T08:39:30;100314.91;;;26.25;43.85
15263;BME280;7733;51.554;13.590;2023-07-13T08:42:04;100313.53;;;26.96;42.94
15263;BME280;7733;51.554;13.590;2023-07-13T08:47:17;100305.97;;;27.22;41.60
15263;BME280;7733;51.554;13.590;2023-07-13T08:49:46;100292.97;;;27.07;40.65
15263;BME280;7733;51.554;13.590;2023-07-13T08:52:33;100295.25;;;27.95;39.81
15263;BME280;7733;51.554;13.590;2023-07-13T08:55:31;100302.84;;;27.38;41.22
15263;BME280;7733;51.554;13.590;2023-07-13T08:58:15;100305.06;;;26.69;41.73
15263;BME280;7733;51.554;13.590;2023-07-13T09:00:58;100309.25;;;26.17;42.50
15263;BME280;7733;51.554;13.590;2023-07-13T09:03:38;100316.00;;;25.89;44.01
15263;BME280;7733;51.554;13.590;2023-07-13T09:06:11;100314.91;;;26.14;43.28
15263;BME280;7733;51.554;13.590;2023-07-13T09:09:06;100308.31;;;26.07;43.19
15263;BME280;7733;51.554;13.590;2023-07-13T09:11:56;100308.66;;;26.25;43.41
15263;BME280;7733;51.554;13.590;2023-07-13T09:14:41;100310.19;;;26.72;42.59
15263;BME280;7733;51.554;13.590;2023-07-13T09:17:23;100309.28;;;27.26;41.48
15263;BME280;7733;51.554;13.590;2023-07-13T09:20:00;100300.84;;;27.40;40.58
15263;BME280;7733;51.554;13.590;2023-07-13T09:22:33;100310.28;;;26.82;41.71
15263;BME280;7733;51.554;13.590;2023-07-13T09:25:05;100304.00;;;26.49;42.31
15263;BME280;7733;51.554;13.590;2023-07-13T09:27:43;100306.44;;;26.63;41.57
15263;BME280;7733;51.554;13.590;2023-07-13T09:32:47;100312.34;;;26.46;42.87
15263;BME280;7733;51.554;13.590;2023-07-13T09:35:21;100322.09;;;26.02;43.12
15263;BME280;7733;51.554;13.590;2023-07-13T09:37:49;100329.09;;;26.05;43.62
15263;BME280;7733;51.554;13.590;2023-07-13T09:40:30;100319.91;;;26.30;43.26
15263;BME280;7733;51.554;13.590;2023-07-13T09:42:58;100310.72;;;26.21;42.49
15263;BME280;7733;51.554;13.590;2023-07-13T09:45:30;100320.75;;;26.30;43.39
15263;BME280;7733;51.554;13.590;2023-07-13T09:48:11;100319.19;;;26.50;42.48
15263;BME280;7733;51.554;13.590;2023-07-13T09:50:39;100321.97;;;26.15;42.52
15263;BME280;7733;51.554;13.590;2023-07-13T09:53:16;100321.22;;;26.69;41.87
15263;BME280;7733;51.554;13.590;2023-07-13T09:55:46;100321.03;;;27.04;41.75
15263;BME280;7733;51.554;13.590;2023-07-13T09:58:20;100314.91;;;26.48;42.28
15263;BME280;7733;51.554;13.590;2023-07-13T10:01:02;100323.44;;;26.96;40.89
15263;BME280;7733;51.554;13.590;2023-07-13T10:03:31;100328.53;;;26.78;41.30
15263;BME280;7733;51.554;13.590;2023-07-13T10:06:16;100331.53;;;26.53;40.06
15263;BME280;7733;51.554;13.590;2023-07-13T10:08:45;100330.53;;;26.43;40.70
15263;BME280;7733;51.554;13.590;2023-07-13T10:11:22;100327.34;;;26.60;41.03
15263;BME280;7733;51.554;13.590;2023-07-13T10:14:09;100336.56;;;26.35;40.82
15263;BME280;7733;51.554;13.590;2023-07-13T10:16:36;100334.81;;;26.67;40.35
15263;BME280;7733;51.554;13.590;2023-07-13T10:19:11;100334.72;;;26.35;40.62
15263;BME280;7733;51.554;13.590;2023-07-13T10:21:57;100332.78;;;26.92;39.32
15263;BME280;7733;51.554;13.590;2023-07-13T10:24:35;100336.31;;;27.04;39.11
15263;BME280;7733;51.554;13.590;2023-07-13T10:27:13;100326.19;;;27.49;38.91
15263;BME280;7733;51.554;13.590;2023-07-13T10:29:58;100330.88;;;27.68;39.73
15263;BME280;7733;51.554;13.590;2023-07-13T10:32:27;100328.56;;;28.14;37.32
15263;BME280;7733;51.554;13.590;2023-07-13T10:34:53;100321.72;;;28.10;36.30
15263;BME280;7733;51.554;13.590;2023-07-13T10:38:11;100323.56;;;28.31;37.40
15263;BME280;7733;51.554;13.590;2023-07-13T10:43:45;100326.84;;;27.83;37.08
15263;BME280;7733;51.554;13.590;2023-07-13T10:46:15;100325.91;;;27.94;36.54
15263;BME280;7733;51.554;13.590;2023-07-13T10:48:45;100323.28;;;28.34;36.28
15263;BME280;7733;51.554;13.590;2023-07-13T10:51:16;100315.13;;;28.64;34.61
15263;BME280;7733;51.554;13.590;2023-07-13T10:53:43;100320.47;;;28.14;37.27
15263;BME280;7733;51.554;13.590;2023-07-13T10:56:29;100324.94;;;27.32;38.26
15263;BME280;7733;51.554;13.590;2023-07-13T10:59:26;100333.09;;;26.98;38.88
15263;BME280;7733;51.554;13.590;2023-07-13T11:02:10;100328.81;;;26.64;38.59
15263;BME280;7733;51.554;13.590;2023-07-13T11:04:47;100327.78;;;26.87;37.93
15263;BME280;7733;51.554;13.590;2023-07-13T11:07:26;100331.53;;;26.53;36.57
15263;BME280;7733;51.554;13.590;2023-07-13T11:10:04;100334.09;;;26.10;36.03
15263;BME280;7733;51.554;13.590;2023-07-13T11:12:52;100333.84;;;26.24;35.97
15263;BME280;7733;51.554;13.590;2023-07-13T11:15:43;100331.91;;;26.03;36.31
15263;BME280;7733;51.554;13.590;2023-07-13T11:18:22;100335.69;;;26.46;35.98
15263;BME280;7733;51.554;13.590;2023-07-13T11:20:49;100325.16;;;26.54;35.82
15263;BME280;7733;51.554;13.590;2023-07-13T11:23:18;100325.34;;;26.73;35.63
15263;BME280;7733;51.554;13.590;2023-07-13T11:25:45;100328.44;;;26.57;36.20
15263;BME280;7733;51.554;13.590;2023-07-13T11:30:40;100329.03;;;26.72;36.20
15263;BME280;7733;51.554;13.590;2023-07-13T11:33:51;100329.16;;;26.71;36.07
15263;BME280;7733;51.554;13.590;2023-07-13T11:36:20;100324.63;;;26.71;36.70
15263;BME280;7733;51.554;13.590;2023-07-13T11:39:32;100330.31;;;27.00;36.89
15263;BME280;7733;51.554;13.590;2023-07-13T11:42:17;100315.31;;;26.75;36.46
15263;BME280;7733;51.554;13.590;2023-07-13T11:44:49;100314.00;;;27.54;36.66
15263;BME280;7733;51.554;13.590;2023-07-13T11:47:20;100308.91;;;27.51;36.29
15263;BME280;7733;51.554;13.590;2023-07-13T11:49:53;100308.63;;;27.54;35.73
15263;BME280;7733;51.554;13.590;2023-07-13T11:52:35;100306.16;;;27.83;35.22
15263;BME280;7733;51.554;13.590;2023-07-13T11:55:13;100303.56;;;28.12;34.88
15263;BME280;7733;51.554;13.590;2023-07-13T11:57:50;100295.34;;;28.54;34.88
15263;BME280;7733;51.554;13.590;2023-07-13T12:00:22;100308.31;;;27.99;36.42
15263;BME280;7733;51.554;13.590;2023-07-13T12:02:53;100316.19;;;27.40;37.26
15263;BME280;7733;51.554;13.590;2023-07-13T12:05:20;100321.38;;;27.00;36.80
15263;BME280;7733;51.554;13.590;2023-07-13T12:07:48;100322.78;;;27.15;37.67
15263;BME280;7733;51.554;13.590;2023-07-13T12:10:28;100319.56;;;27.21;37.54
15263;BME280;7733;51.554;13.590;2023-07-13T12:13:02;100312.44;;;27.31;36.63
15263;BME280;7733;51.554;13.590;2023-07-13T12:15:45;100306.25;;;27.61;36.23
15263;BME280;7733;51.554;13.590;2023-07-13T12:18:29;100300.44;;;28.07;35.08
15263;BME280;7733;51.554;13.590;2023-07-13T12:20:58;100306.53;;;28.09;35.30
15263;BME280;7733;51.554;13.590;2023-07-13T12:23:30;100310.81;;;28.52;34.65
15263;BME280;7733;51.554;13.590;2023-07-13T12:25:59;100300.03;;;28.52;35.04
15263;BME280;7733;51.554;13.590;2023-07-13T12:28:46;100304.66;;;28.31;34.10
15263;BME280;7733;51.554;13.590;2023-07-13T12:31:30;100304.00;;;28.58;34.31
15263;BME280;7733;51.554;13.590;2023-07-13T12:34:18;100301.53;;;29.14;33.57
15263;BME280;7733;51.554;13.590;2023-07-13T12:36:51;100307.75;;;28.66;33.52
15263;BME280;7733;51.554;13.590;2023-07-13T12:39:21;100294.16;;;29.26;32.92
15263;BME280;7733;51.554;13.590;2023-07-13T12:41:51;100295.69;;;29.28;32.02
15263;BME280;7733;51.554;13.590;2023-07-13T12:44:30;100305.50;;;29.00;31.72
15263;BME280;7733;51.554;13.590;2023-07-13T12:47:04;100291.53;;;28.76;32.75
15263;BME280;7733;51.554;13.590;2023-07-13T12:49:33;100295.84;;;27.98;33.28
15263;BME280;7733;51.554;13.590;2023-07-13T12:52:14;100296.38;;;27.92;34.50
15263;BME280;7733;51.554;13.590;2023-07-13T12:54:40;100293.22;;;28.48;33.74
15263;BME280;7733;51.554;13.590;2023-07-13T12:57:14;100287.34;;;28.43;33.87
15263;BME280;7733;51.554;13.590;2023-07-13T12:59:42;100286.00;;;28.77;33.21
15263;BME280;7733;51.554;13.590;2023-07-13T13:02:37;100295.22;;;28.75;33.48
15263;BME280;7733;51.554;13.590;2023-07-13T13:05:03;100284.41;;;28.46;33.15
15263;BME280;7733;51.554;13.590;2023-07-13T13:07:30;100294.94;;;28.78;32.60
15263;BME280;7733;51.554;13.590;2023-07-13T13:09:55;100281.03;;;29.21;31.67
15263;BME280;7733;51.554;13.590;2023-07-13T13:12:22;100279.34;;;29.11;31.55
15263;BME280;7733;51.554;13.590;2023-07-13T13:14:51;100288.16;;;29.13;31.05
15263;BME280;7733;51.554;13.590;2023-07-13T13:17:30;100278.31;;;28.63;31.31
15263;BME280;7733;51.554;13.590;2023-07-13T13:19:56;100284.75;;;28.91;32.26